Time;durP1;ratioP1;P1;durP2;ratioP2;P2;SDS_P1;SDS_P2;PMS_P1;PMS_P2;Temp;Humidity;BMP_temperature;BMP_pressure;BME280_temperature;BME280_humidity;BME280_pressure;Samples;Min_cycle;Max_cycle;Signal;HPM_P1;HPM_P2
2023/03/28 00:01:42;;;;;;;3.78;3.00;;;2.70;99.90;;;;;;6328237;28;20123;-79
2023/03/28 00:04:51;;;;;;;4.90;3.40;;;2.60;99.90;;;;;;6327096;28;20103;-79
2023/03/28 00:07:53;;;;;;;3.58;2.72;;;2.50;99.90;;;;;;6326063;28;20044;-79
2023/03/28 00:11:02;;;;;;;4.32;3.92;;;2.50;99.90;;;;;;6325917;28;20047;-80
2023/03/28 00:14:07;;;;;;;4.72;4.25;;;2.40;99.90;;;;;;6323908;28;20568;-79
2023/03/28 00:17:08;;;;;;;5.07;3.85;;;2.30;99.90;;;;;;6323887;28;20074;-78
2023/03/28 00:20:13;;;;;;;5.43;3.50;;;2.20;99.90;;;;;;6323153;28;20393;-78
2023/03/28 00:23:16;;;;;;;6.40;3.47;;;2.20;99.90;;;;;;6320613;28;20177;-78
2023/03/28 00:26:19;;;;;;;5.82;3.83;;;2.10;99.90;;;;;;6344121;28;20040;-78
2023/03/28 00:29:24;;;;;;;5.38;3.58;;;2.00;99.90;;;;;;6334050;28;20548;-78
2023/03/28 00:32:26;;;;;;;8.35;3.72;;;1.90;99.90;;;;;;6298074;28;20054;-79
2023/03/28 00:35:29;;;;;;;5.25;4.18;;;1.80;99.90;;;;;;6297741;28;20487;-78
2023/03/28 00:38:31;;;;;;;4.75;3.92;;;1.80;99.90;;;;;;6299389;28;20060;-79
2023/03/28 00:41:34;;;;;;;5.20;4.18;;;1.70;99.90;;;;;;6297699;28;20040;-79
2023/03/28 00:44:49;;;;;;;7.72;4.07;;;1.70;99.90;;;;;;6297888;28;20056;-79
2023/03/28 00:47:53;;;;;;;3.75;3.30;;;1.60;99.90;;;;;;6297983;28;20040;-79
2023/03/28 00:51:02;;;;;;;4.37;2.43;;;1.60;99.90;;;;;;6298296;28;20600;-79
2023/03/28 00:54:08;;;;;;;7.30;3.63;;;1.50;99.90;;;;;;6297990;28;20052;-78
2023/03/28 00:57:11;;;;;;;4.47;3.57;;;1.50;99.90;;;;;;6298322;28;20549;-78
2023/03/28 01:00:17;;;;;;;6.20;4.27;;;1.30;99.90;;;;;;6298240;28;20044;-79
2023/03/28 01:03:21;;;;;;;4.47;3.60;;;1.20;99.90;;;;;;6297837;28;20049;-79
2023/03/28 01:06:25;;;;;;;8.53;6.20;;;1.10;99.90;;;;;;6297653;28;20461;-79
2023/03/28 01:09:27;;;;;;;7.40;4.70;;;1.10;99.90;;;;;;6296185;28;20057;-79
2023/03/28 01:12:29;;;;;;;6.73;4.40;;;1.20;99.90;;;;;;6297640;28;20044;-79
2023/03/28 01:15:31;;;;;;;8.03;5.37;;;1.20;99.90;;;;;;6314697;28;20060;-79
2023/03/28 01:18:34;;;;;;;6.77;3.93;;;1.20;99.90;;;;;;6322405;28;20052;-79
2023/03/28 01:22:30;;;;;;;6.50;4.43;;;1.10;99.90;;;;;;6321873;28;20048;-80
2023/03/28 01:26:13;;;;;;;4.60;4.13;;;1.10;99.90;;;;;;6262197;28;20418;-79
2023/03/28 01:29:59;;;;;;;7.20;3.27;;;1.00;99.90;;;;;;6283118;28;20048;-78
2023/03/28 01:33:37;;;;;;;5.47;3.43;;;1.00;99.90;;;;;;6323122;28;20097;-79
2023/03/28 01:36:58;;;;;;;8.80;4.47;;;0.90;99.90;;;;;;6305344;28;20051;-78
2023/03/28 01:40:19;;;;;;;7.90;4.83;;;0.80;99.90;;;;;;6322398;28;20391;-78
2023/03/28 01:43:31;;;;;;;6.47;4.70;;;0.70;99.90;;;;;;6325259;28;20056;-79
2023/03/28 01:46:38;;;;;;;6.03;3.83;;;0.70;99.90;;;;;;6328814;28;20041;-79
2023/03/28 01:49:47;;;;;;;5.87;4.63;;;0.70;99.90;;;;;;6329471;28;20059;-79
2023/03/28 01:52:58;;;;;;;6.53;5.03;;;0.60;99.90;;;;;;6329285;28;20044;-79
2023/03/28 01:56:08;;;;;;;6.23;4.00;;;0.60;99.90;;;;;;6328911;28;20138;-79
2023/03/28 01:59:17;;;;;;;5.80;5.20;;;0.70;99.90;;;;;;6329727;28;20078;-79
2023/03/28 02:02:26;;;;;;;7.07;4.30;;;0.60;99.90;;;;;;6329521;28;20044;-79
2023/03/28 02:05:31;;;;;;;7.20;4.53;;;0.60;99.90;;;;;;6328739;28;20079;-79
2023/03/28 02:08:37;;;;;;;4.50;2.90;;;0.60;99.90;;;;;;6328953;28;20048;-79
2023/03/28 02:11:41;;;;;;;4.67;4.03;;;0.60;99.90;;;;;;6328815;28;20048;-79
2023/03/28 02:14:45;;;;;;;5.27;4.73;;;0.60;99.90;;;;;;6329871;28;20048;-79
2023/03/28 02:17:52;;;;;;;7.30;4.10;;;0.60;99.90;;;;;;6328917;28;20044;-79
2023/03/28 02:20:59;;;;;;;7.45;4.82;;;0.60;99.90;;;;;;6327165;28;20048;-79
2023/03/28 02:24:02;;;;;;;5.10;4.53;;;0.60;99.90;;;;;;6327108;28;20051;-79
2023/03/28 02:27:07;;;;;;;5.00;4.50;;;0.60;99.90;;;;;;6327688;28;20409;-79
2023/03/28 02:30:10;;;;;;;6.63;4.47;;;0.60;99.90;;;;;;6325023;28;20131;-78
2023/03/28 02:33:32;;;;;;;9.00;4.90;;;0.50;99.90;;;;;;6326929;28;20048;-78
2023/03/28 02:36:42;;;;;;;7.30;4.33;;;0.50;99.90;;;;;;6327364;28;20538;-78
2023/03/28 02:39:50;;;;;;;7.97;4.20;;;0.50;99.90;;;;;;6331785;28;20422;-78
2023/03/28 02:43:14;;;;;;;7.30;4.22;;;0.40;99.90;;;;;;6332893;28;20052;-78
2023/03/28 02:46:23;;;;;;;6.00;3.93;;;0.40;99.90;;;;;;6333648;28;20465;-79
2023/03/28 02:49:49;;;;;;;9.67;5.50;;;0.30;99.90;;;;;;6327929;28;20054;-78
2023/03/28 02:52:57;;;;;;;8.87;4.13;;;0.30;99.90;;;;;;6325002;28;20039;-79
2023/03/28 02:56:06;;;;;;;8.20;4.57;;;0.30;99.90;;;;;;6325462;28;20121;-78
2023/03/28 02:59:14;;;;;;;8.83;4.40;;;0.30;99.90;;;;;;6329159;28;20044;-79
2023/03/28 03:02:17;;;;;;;;;;;0.20;99.90;;;;;;6331323;28;20671;-78
2023/03/28 03:05:21;;;;;;;5.90;4.07;;;0.20;99.90;;;;;;6331715;28;19920;-79
2023/03/28 03:08:23;;;;;;;7.87;4.53;;;0.20;99.90;;;;;;6331845;28;20043;-79
2023/03/28 03:11:27;;;;;;;8.53;5.37;;;0.10;99.90;;;;;;6332442;28;20054;-79
2023/03/28 03:14:29;;;;;;;9.53;5.00;;;0.00;99.90;;;;;;6331588;28;20055;-79
2023/03/28 03:17:31;;;;;;;6.10;4.67;;;0.00;99.90;;;;;;6329895;28;20051;-78
2023/03/28 03:20:33;;;;;;;8.60;6.10;;;0.00;99.90;;;;;;6330804;28;20054;-77
2023/03/28 03:23:35;;;;;;;7.27;5.10;;;-0.10;99.90;;;;;;6330128;28;20059;-78
2023/03/28 03:26:38;;;;;;;6.73;5.57;;;-0.10;99.90;;;;;;6330595;28;20043;-78
2023/03/28 03:29:40;;;;;;;8.77;5.03;;;-0.20;99.90;;;;;;6329701;28;20052;-78
2023/03/28 03:32:42;;;;;;;6.40;5.23;;;-0.20;99.90;;;;;;6329706;28;20082;-78
2023/03/28 03:35:46;;;;;;;4.83;4.43;;;-0.20;99.90;;;;;;6329521;28;20426;-78
2023/03/28 03:38:48;;;;;;;5.50;4.60;;;-0.20;99.90;;;;;;6330508;28;20486;-79
2023/03/28 03:41:51;;;;;;;6.73;4.53;;;-0.20;99.90;;;;;;6330704;28;20055;-78
2023/03/28 03:44:53;;;;;;;5.60;4.77;;;-0.20;99.90;;;;;;6331151;28;20047;-79
2023/03/28 03:47:54;;;;;;;6.77;5.30;;;-0.20;99.90;;;;;;6330813;28;20044;-79
2023/03/28 03:50:56;;;;;;;9.33;4.17;;;-0.20;99.90;;;;;;6330688;28;20048;-79
2023/03/28 03:53:58;;;;;;;6.13;5.23;;;-0.20;99.90;;;;;;6329973;28;20056;-79
2023/03/28 03:57:01;;;;;;;9.50;6.30;;;-0.30;99.90;;;;;;6328282;28;20051;-79
2023/03/28 04:00:10;;;;;;;7.53;5.67;;;-0.30;99.90;;;;;;6335035;28;20468;-79
2023/03/28 04:03:12;;;;;;;6.90;5.70;;;-0.30;99.90;;;;;;6348522;28;20060;-78
2023/03/28 04:06:13;;;;;;;8.63;6.20;;;-0.40;99.90;;;;;;6355131;28;20054;-79
2023/03/28 04:09:15;;;;;;;6.70;6.03;;;-0.40;99.90;;;;;;6353747;28;20043;-79
2023/03/28 04:12:18;;;;;;;8.73;5.43;;;-0.50;99.90;;;;;;6356007;28;20039;-80
2023/03/28 04:15:20;;;;;;;10.70;5.80;;;-0.50;99.90;;;;;;6352718;28;20055;-79
2023/03/28 04:18:21;;;;;;;8.17;6.43;;;-0.50;99.90;;;;;;6351573;28;20043;-79
2023/03/28 04:21:27;;;;;;;7.37;6.47;;;-0.50;99.90;;;;;;6352727;28;20052;-80
2023/03/28 04:24:28;;;;;;;9.50;6.07;;;-0.50;99.90;;;;;;6355266;28;20043;-80
2023/03/28 04:27:36;;;;;;;9.93;6.83;;;-0.50;99.90;;;;;;6302967;28;20055;-79
2023/03/28 04:30:38;;;;;;;10.75;8.43;;;-0.40;99.90;;;;;;6304574;28;20062;-80
2023/03/28 04:33:40;;;;;;;9.67;6.97;;;-0.40;99.90;;;;;;6302044;28;20049;-80
2023/03/28 04:36:42;;;;;;;9.07;6.43;;;-0.40;99.90;;;;;;6304171;28;20576;-80
2023/03/28 04:39:46;;;;;;;13.00;6.77;;;-0.40;99.90;;;;;;6303354;28;20475;-81
2023/03/28 04:42:49;;;;;;;9.97;7.23;;;-0.40;99.90;;;;;;6305284;28;20045;-80
2023/03/28 04:45:50;;;;;;;7.77;6.97;;;-0.40;99.90;;;;;;6310453;28;20051;-83
2023/03/28 04:48:52;;;;;;;10.70;6.43;;;-0.40;99.90;;;;;;6305722;28;20050;-82
2023/03/28 04:51:54;;;;;;;12.20;5.80;;;-0.40;99.90;;;;;;6303327;28;20044;-82
2023/03/28 04:54:56;;;;;;;8.63;5.90;;;-0.40;99.90;;;;;;6303722;28;20052;-82
2023/03/28 04:58:00;;;;;;;7.57;5.87;;;-0.40;99.90;;;;;;6303204;28;20040;-82
2023/03/28 05:01:40;;;;;;;12.30;5.87;;;-0.40;99.90;;;;;;6303329;28;20137;-82
2023/03/28 05:04:43;;;;;;;8.00;6.10;;;-0.30;99.90;;;;;;6302326;28;20123;-82
2023/03/28 05:07:44;;;;;;;6.83;4.93;;;-0.40;99.90;;;;;;6304955;28;20111;-82
2023/03/28 05:10:47;;;;;;;8.50;4.93;;;-0.50;99.90;;;;;;6304478;28;20048;-82
2023/03/28 05:13:50;;;;;;;6.23;4.47;;;-0.50;99.90;;;;;;6303762;28;20064;-82
2023/03/28 05:16:52;;;;;;;13.33;9.63;;;-0.60;99.90;;;;;;6304331;28;20564;-82
2023/03/28 05:19:54;;;;;;;12.90;5.67;;;-0.70;99.90;;;;;;6309924;28;20116;-83
2023/03/28 05:22:56;;;;;;;8.40;5.80;;;-0.70;99.90;;;;;;6310672;28;20418;-82
2023/03/28 05:25:58;;;;;;;10.67;6.77;;;-0.80;99.90;;;;;;6326543;28;20040;-83
2023/03/28 05:29:01;;;;;;;6.30;5.07;;;-0.70;99.90;;;;;;6332345;28;20093;-82
2023/03/28 05:32:03;;;;;;;6.57;5.37;;;-0.70;99.90;;;;;;6331206;28;20410;-82
2023/03/28 05:35:06;;;;;;;8.17;5.93;;;-0.60;99.90;;;;;;6333386;28;20052;-82
2023/03/28 05:38:07;;;;;;;9.47;6.00;;;-0.50;99.90;;;;;;6333959;28;20044;-81
2023/03/28 05:41:10;;;;;;;10.53;5.20;;;-0.40;99.90;;;;;;6331816;28;20048;-82
2023/03/28 05:44:13;;;;;;;7.23;5.17;;;-0.30;99.90;;;;;;6331835;28;20067;-82
2023/03/28 05:47:15;;;;;;;7.40;6.30;;;-0.20;99.90;;;;;;6332753;28;20043;-83
2023/03/28 05:50:17;;;;;;;7.43;5.43;;;-0.20;99.90;;;;;;6335781;28;20052;-82
2023/03/28 05:53:23;;;;;;;16.70;6.43;;;-0.10;99.90;;;;;;6339635;28;20047;-82
2023/03/28 05:56:25;;;;;;;7.37;6.13;;;0.00;99.90;;;;;;6331917;28;20104;-82
2023/03/28 05:59:28;;;;;;;8.03;6.07;;;0.10;99.90;;;;;;6330149;28;20051;-83
2023/03/28 06:02:32;;;;;;;9.00;6.63;;;0.10;99.90;;;;;;6330427;28;20134;-82
2023/03/28 06:05:34;;;;;;;12.60;5.57;;;0.30;99.90;;;;;;6329545;28;20048;-80
2023/03/28 06:08:42;;;;;;;14.43;6.43;;;0.40;99.90;;;;;;6329641;28;20576;-81
2023/03/28 06:11:44;;;;;;;9.37;7.43;;;0.60;99.90;;;;;;6331788;28;20067;-81
2023/03/28 06:14:47;;;;;;;6.70;5.83;;;0.80;99.90;;;;;;6330562;28;20059;-81
2023/03/28 06:17:49;;;;;;;14.30;8.03;;;1.00;99.90;;;;;;6329660;28;20040;-81
2023/03/28 06:20:51;;;;;;;5.57;4.00;;;1.10;99.90;;;;;;6329330;28;20044;-81
2023/03/28 06:23:52;;;;;;;9.63;4.37;;;1.30;99.90;;;;;;6330146;28;20656;-81
2023/03/28 06:26:54;;;;;;;7.93;5.63;;;1.40;99.90;;;;;;6334401;28;20048;-82
2023/03/28 06:29:58;;;;;;;6.37;5.57;;;1.50;99.90;;;;;;6331895;28;20063;-82
2023/03/28 06:33:00;;;;;;;11.10;5.18;;;1.70;99.90;;;;;;6338478;28;20051;-82
2023/03/28 06:36:02;;;;;;;6.57;4.75;;;1.90;99.90;;;;;;6336297;28;20161;-81
2023/03/28 06:39:04;;;;;;;10.60;5.05;;;2.10;99.90;;;;;;6330688;28;20119;-81
2023/03/28 06:42:06;;;;;;;11.85;4.70;;;2.30;99.90;;;;;;6331371;28;20112;-82
2023/03/28 06:45:10;;;;;;;9.93;5.78;;;2.40;99.90;;;;;;6331177;28;20510;-81
2023/03/28 06:48:12;;;;;;;6.80;4.05;;;2.60;99.90;;;;;;6330682;28;20405;-81
2023/03/28 06:51:14;;;;;;;5.47;4.30;;;2.80;99.90;;;;;;6329919;28;20052;-81
2023/03/28 06:54:15;;;;;;;6.20;3.63;;;3.00;99.90;;;;;;6329818;28;20048;-81
2023/03/28 06:57:17;;;;;;;5.40;3.95;;;3.20;99.90;;;;;;6330231;28;20044;-81
2023/03/28 07:00:21;;;;;;;5.50;3.60;;;3.50;99.90;;;;;;6329204;28;20043;-81
2023/03/28 07:03:23;;;;;;;4.05;3.75;;;3.70;99.90;;;;;;6329491;28;20512;-81
2023/03/28 07:06:26;;;;;;;9.77;4.13;;;4.00;99.90;;;;;;6329586;28;20643;-81
2023/03/28 07:09:28;;;;;;;6.05;5.50;;;4.30;99.90;;;;;;6329719;28;20044;-81
2023/03/28 07:12:30;;;;;;;6.15;3.63;;;4.60;99.90;;;;;;6329488;28;20517;-82
2023/03/28 07:15:34;;;;;;;6.55;3.20;;;4.80;99.90;;;;;;6328778;28;20474;-81
2023/03/28 07:18:37;;;;;;;5.05;3.53;;;5.10;99.90;;;;;;6330051;28;20139;-82
2023/03/28 07:21:38;;;;;;;4.07;3.30;;;5.40;99.90;;;;;;6329461;28;20055;-80
2023/03/28 07:24:40;;;;;;;3.83;3.50;;;5.70;99.90;;;;;;6325760;28;20055;-80
2023/03/28 07:27:42;;;;;;;6.47;4.30;;;6.00;99.90;;;;;;6326450;28;20044;-79
2023/03/28 07:30:45;;;;;;;7.97;4.32;;;6.20;99.90;;;;;;6326547;28;20056;-81
2023/03/28 07:33:49;;;;;;;6.38;3.38;;;6.70;99.90;;;;;;6327328;28;20502;-80
2023/03/28 07:36:50;;;;;;;6.60;3.47;;;7.30;99.90;;;;;;6324961;28;20101;-80
2023/03/28 07:39:53;;;;;;;4.28;3.58;;;8.10;99.90;;;;;;6318928;28;20154;-80
2023/03/28 07:42:55;;;;;;;5.13;4.35;;;9.10;99.90;;;;;;6324675;28;20051;-80
2023/03/28 07:46:01;;;;;;;4.32;3.20;;;10.10;99.90;;;;;;6324692;28;20044;-80
2023/03/28 07:49:03;;;;;;;5.00;3.50;;;10.80;99.90;;;;;;6326572;28;20413;-80
2023/03/28 07:52:05;;;;;;;8.07;3.50;;;11.50;99.90;;;;;;6327108;28;20046;-81
2023/03/28 07:55:07;;;;;;;8.65;3.97;;;12.20;99.90;;;;;;6327613;28;20059;-81
2023/03/28 07:58:09;;;;;;;3.85;3.15;;;12.50;99.90;;;;;;6326180;28;20040;-81
2023/03/28 08:01:17;;;;;;;8.13;4.38;;;12.90;99.90;;;;;;6327185;28;20051;-81
2023/03/28 08:04:19;;;;;;;;;;;13.20;99.90;;;;;;6325640;28;20475;-81
2023/03/28 08:07:21;;;;;;;5.72;4.07;;;13.60;99.90;;;;;;6326981;28;19927;-81
2023/03/28 08:10:22;;;;;;;6.38;3.58;;;14.00;99.90;;;;;;6305902;28;20048;-80
2023/03/28 08:13:24;;;;;;;4.13;3.63;;;14.40;99.90;;;;;;6299346;28;20044;-80
2023/03/28 08:16:28;;;;;;;9.70;4.47;;;14.40;99.90;;;;;;6301009;28;20056;-82
2023/03/28 08:19:29;;;;;;;5.65;3.88;;;14.70;99.50;;;;;;6302644;28;20049;-81
2023/03/28 08:22:31;;;;;;;4.47;3.22;;;14.60;98.30;;;;;;6302014;28;20059;-80
2023/03/28 08:25:33;;;;;;;7.60;3.67;;;14.60;97.10;;;;;;6301691;28;20098;-81
2023/03/28 08:28:36;;;;;;;5.60;3.95;;;14.30;96.10;;;;;;6302332;28;20045;-82
2023/03/28 08:31:39;;;;;;;3.97;3.20;;;13.50;94.90;;;;;;6307113;28;20415;-81
2023/03/28 08:34:40;;;;;;;5.47;4.05;;;12.40;95.40;;;;;;6302837;28;20048;-81
2023/03/28 08:37:42;;;;;;;7.32;3.90;;;12.20;95.40;;;;;;6323892;28;20048;-81
2023/03/28 08:40:51;;;;;;;4.25;3.70;;;11.70;95.20;;;;;;6302914;28;20048;-81
2023/03/28 08:44:05;;;;;;;7.05;3.92;;;11.60;95.20;;;;;;6301029;28;20052;-81
2023/03/28 08:47:14;;;;;;;4.20;3.70;;;10.90;94.40;;;;;;6305440;28;20063;-83
2023/03/28 08:50:19;;;;;;;7.47;3.05;;;10.20;95.00;;;;;;6304831;28;20084;-83
2023/03/28 08:53:29;;;;;;;3.53;3.03;;;10.60;96.10;;;;;;6326173;28;20132;-84
2023/03/28 08:56:33;;;;;;;6.82;3.22;;;11.10;95.20;;;;;;6321723;28;20036;-83
2023/03/28 08:59:43;;;;;;;5.95;3.40;;;10.70;94.00;;;;;;6318139;28;20513;-83
2023/03/28 09:02:46;;;;;;;7.95;3.15;;;10.30;94.80;;;;;;6320325;28;20048;-82
2023/03/28 09:05:51;;;;;;;3.58;2.30;;;10.80;95.20;;;;;;6318455;28;20043;-82
2023/03/28 09:09:16;;;;;;;4.15;2.83;;;11.30;94.00;;;;;;6318731;28;20044;-84
2023/03/28 09:12:31;;;;;;;4.93;3.33;;;11.50;93.50;;;;;;6319613;28;20516;-83
2023/03/28 09:15:46;;;;;;;7.00;2.65;;;11.70;93.80;;;;;;6319585;28;20067;-81
2023/03/28 09:19:09;;;;;;;5.05;2.60;;;12.20;93.70;;;;;;6317913;28;20397;-82
2023/03/28 09:22:23;;;;;;;6.35;2.60;;;12.70;93.40;;;;;;6318732;28;20073;-83
2023/03/28 09:25:32;;;;;;;4.65;2.55;;;13.00;93.00;;;;;;6318587;28;20093;-83
2023/03/28 09:28:41;;;;;;;5.38;2.67;;;13.40;92.10;;;;;;6318157;28;20487;-83
2023/03/28 09:31:47;;;;;;;6.10;3.47;;;13.20;91.30;;;;;;6317517;28;20056;-81
2023/03/28 09:34:51;;;;;;;4.78;2.42;;;13.30;91.10;;;;;;6317416;28;20056;-80
2023/03/28 09:37:56;;;;;;;7.97;2.70;;;13.40;90.00;;;;;;6314768;28;20441;-81
2023/03/28 09:41:00;;;;;;;3.45;3.15;;;13.10;87.00;;;;;;6316151;28;20048;-81
2023/03/28 09:44:04;;;;;;;8.90;3.47;;;12.90;88.20;;;;;;6316441;28;20067;-81
2023/03/28 09:47:11;;;;;;;6.75;5.18;;;12.50;86.00;;;;;;6316888;28;20501;-81
2023/03/28 09:50:16;;;;;;;6.13;3.13;;;11.90;87.00;;;;;;6316535;28;20101;-81
2023/03/28 09:53:25;;;;;;;8.38;3.95;;;12.10;87.40;;;;;;6315467;28;20131;-82
2023/03/28 09:56:30;;;;;;;5.13;2.75;;;12.40;86.20;;;;;;6315502;28;20056;-80
2023/03/28 09:59:33;;;;;;;4.13;3.30;;;12.40;86.10;;;;;;6315122;28;20043;-81
2023/03/28 10:02:35;;;;;;;5.72;3.55;;;12.40;85.40;;;;;;6316633;28;20418;-81
2023/03/28 10:05:42;;;;;;;4.25;2.30;;;12.60;85.50;;;;;;6320560;28;20044;-82
2023/03/28 10:08:44;;;;;;;6.25;4.18;;;12.70;83.20;;;;;;6325818;28;20490;-83
2023/03/28 10:11:53;;;;;;;5.05;2.90;;;12.40;83.50;;;;;;6324917;28;20052;-81
2023/03/28 10:14:54;;;;;;;8.20;3.22;;;12.50;83.70;;;;;;6320434;28;20052;-84
2023/03/28 10:18:00;;;;;;;4.57;2.55;;;13.00;84.20;;;;;;6319197;28;20137;-80
2023/03/28 10:21:12;;;;;;;3.72;2.80;;;13.80;82.20;;;;;;6318980;28;20055;-81
2023/03/28 10:24:18;;;;;;;6.55;3.25;;;14.40;80.40;;;;;;6318512;28;20517;-79
2023/03/28 10:27:23;;;;;;;3.22;2.85;;;14.40;79.10;;;;;;6317790;28;20505;-79
2023/03/28 10:30:28;;;;;;;7.45;3.05;;;14.30;78.50;;;;;;6319324;28;20206;-79
2023/03/28 10:33:34;;;;;;;2.05;1.95;;;14.30;78.00;;;;;;6313270;28;20040;-81
2023/03/28 10:36:42;;;;;;;5.35;1.90;;;14.60;77.40;;;;;;6315633;28;20047;-79
2023/03/28 10:39:58;;;;;;;6.53;2.47;;;15.00;74.50;;;;;;6313953;28;20058;-79
2023/03/28 10:43:00;;;;;;;3.75;1.85;;;15.00;73.90;;;;;;6316795;28;21138;-80
2023/03/28 10:46:05;;;;;;;3.15;1.88;;;15.40;72.90;;;;;;6317356;28;20036;-80
2023/03/28 10:49:13;;;;;;;3.47;2.03;;;15.40;71.00;;;;;;6321486;28;20502;-80
2023/03/28 10:52:22;;;;;;;;;;;14.80;69.50;;;;;;6319259;28;20044;-81
2023/03/28 10:55:27;;;;;;;5.40;1.65;;;13.90;71.50;;;;;;6318991;28;20563;-81
2023/03/28 10:58:34;;;;;;;4.75;1.48;;;14.00;72.30;;;;;;6318352;28;20055;-82
2023/03/28 11:01:46;;;;;;;3.92;1.88;;;14.50;71.30;;;;;;6321657;28;20071;-81
2023/03/28 11:04:59;;;;;;;4.50;1.52;;;15.10;68.90;;;;;;6317612;28;20117;-81
2023/03/28 11:08:15;;;;;;;6.70;1.85;;;15.50;66.60;;;;;;6319052;28;20056;-81
2023/03/28 11:11:48;;;;;;;1.70;1.23;;;15.30;65.20;;;;;;6320026;28;20052;-80
2023/03/28 11:15:01;;;;;;;3.35;1.63;;;15.50;64.70;;;;;;6319134;28;20101;-81
2023/03/28 11:18:26;;;;;;;3.53;2.10;;;15.70;64.10;;;;;;6318045;28;20070;-80
2023/03/28 11:21:40;;;;;;;3.47;1.80;;;15.70;62.90;;;;;;6317347;28;20040;-80
2023/03/28 11:24:49;;;;;;;3.53;1.98;;;15.40;61.00;;;;;;6318156;28;20044;-80
2023/03/28 11:28:30;;;;;;;2.83;2.08;;;14.80;62.30;;;;;;6315207;28;20103;-80
2023/03/28 11:31:45;;;;;;;2.22;1.60;;;14.60;62.10;;;;;;6318761;28;20066;-78
2023/03/28 11:35:00;;;;;;;3.45;1.98;;;14.90;62.30;;;;;;6317366;28;20044;-80
2023/03/28 11:38:08;;;;;;;3.10;2.10;;;15.20;61.90;;;;;;6314550;28;20052;-80
2023/03/28 11:41:14;;;;;;;2.65;1.52;;;15.30;60.60;;;;;;6318878;28;20474;-79
2023/03/28 11:44:20;;;;;;;4.00;2.42;;;15.30;60.50;;;;;;6316731;28;20059;-80
2023/03/28 11:47:27;;;;;;;5.38;4.85;;;15.40;59.90;;;;;;6317997;28;20059;-79
2023/03/28 11:50:35;;;;;;;3.40;1.80;;;15.30;59.30;;;;;;6318935;28;20048;-80
2023/03/28 11:53:42;;;;;;;4.80;1.52;;;15.30;58.10;;;;;;6323242;28;20052;-79
2023/03/28 11:56:53;;;;;;;4.78;2.60;;;15.00;58.60;;;;;;6319319;28;20040;-80
2023/03/28 12:00:03;;;;;;;16.73;14.80;;;15.20;58.30;;;;;;6322120;28;20044;-81
2023/03/28 12:03:15;;;;;;;9.60;8.68;;;15.40;58.40;;;;;;6319708;28;20051;-81
2023/03/28 12:06:22;;;;;;;9.40;8.57;;;15.60;58.10;;;;;;6317473;28;20041;-81
2023/03/28 12:09:32;;;;;;;4.47;2.47;;;15.90;57.70;;;;;;6318761;28;20040;-81
2023/03/28 12:12:45;;;;;;;6.13;2.30;;;16.20;57.20;;;;;;6318562;28;20062;-81
2023/03/28 12:15:50;;;;;;;4.72;2.03;;;16.60;56.90;;;;;;6319553;28;20067;-81
2023/03/28 12:18:57;;;;;;;3.28;2.45;;;17.00;56.30;;;;;;6323559;28;20064;-84
2023/03/28 12:22:03;;;;;;;6.00;2.83;;;17.20;55.50;;;;;;6325252;28;20036;-81
2023/03/28 12:25:12;;;;;;;2.35;1.50;;;17.30;54.90;;;;;;6319756;28;20043;-81
2023/03/28 12:28:27;;;;;;;2.70;1.45;;;17.40;54.80;;;;;;6317955;28;20040;-81
2023/03/28 12:31:37;;;;;;;18.25;1.83;;;17.50;53.70;;;;;;6321657;28;20120;-83
2023/03/28 12:34:44;;;;;;;3.92;1.52;;;17.20;52.90;;;;;;6324275;28;20510;-81
2023/03/28 12:38:03;;;;;;;1.40;1.30;;;16.70;52.90;;;;;;6322183;28;20371;-81
2023/03/28 12:41:08;;;;;;;2.22;1.27;;;16.70;53.50;;;;;;6324768;28;20055;-80
2023/03/28 12:44:15;;;;;;;3.22;1.50;;;16.90;52.90;;;;;;6318887;28;21204;-81
2023/03/28 12:47:21;;;;;;;3.65;1.85;;;16.80;51.90;;;;;;6317747;28;20078;-80
2023/03/28 12:50:29;;;;;;;1.35;1.25;;;16.80;52.80;;;;;;6316944;28;20040;-79
2023/03/28 12:53:33;;;;;;;2.25;1.50;;;17.40;53.50;;;;;;6317694;28;20135;-80
2023/03/28 12:56:35;;;;;;;3.85;1.70;;;17.60;52.50;;;;;;6317050;28;20122;-81
2023/03/28 13:00:08;;;;;;;2.53;1.75;;;17.70;52.00;;;;;;6317243;28;20083;-81
2023/03/28 13:03:23;;;;;;;2.00;1.13;;;17.80;52.80;;;;;;6318440;28;20048;-82
2023/03/28 13:06:39;;;;;;;3.45;1.25;;;18.20;52.90;;;;;;6317998;28;20047;-82
2023/03/28 13:09:55;;;;;;;1.73;1.30;;;18.50;52.10;;;;;;6317296;28;20483;-81
2023/03/28 13:13:07;;;;;;;1.35;1.05;;;18.70;51.30;;;;;;6318847;28;20054;-80
2023/03/28 13:16:16;;;;;;;1.50;1.35;;;18.60;51.20;;;;;;6317279;28;20059;-81
2023/03/28 13:19:36;;;;;;;2.13;1.60;;;18.50;51.40;;;;;;6319526;28;20127;-84
2023/03/28 13:22:49;;;;;;;1.45;1.08;;;18.30;51.30;;;;;;6318791;28;20056;-80
2023/03/28 13:25:54;;;;;;;1.33;1.10;;;18.10;51.00;;;;;;6318415;28;20494;-81
2023/03/28 13:29:00;;;;;;;1.02;0.93;;;18.00;51.10;;;;;;6318790;28;20047;-81
2023/03/28 13:32:11;;;;;;;2.00;1.02;;;17.90;51.60;;;;;;6318809;28;20047;-82
2023/03/28 13:35:44;;;;;;;2.67;1.00;;;18.00;51.20;;;;;;6315095;28;20150;-81
2023/03/28 13:38:49;;;;;;;1.50;1.40;;;18.00;49.80;;;;;;6317102;28;20047;-82
2023/03/28 13:42:24;;;;;;;2.80;0.90;;;17.90;50.00;;;;;;6322146;28;20051;-81
2023/03/28 13:45:28;;;;;;;1.63;0.90;;;17.70;50.00;;;;;;6323444;28;20051;-82
2023/03/28 13:48:35;;;;;;;1.55;1.05;;;17.50;50.40;;;;;;6320799;28;20052;-79
2023/03/28 13:51:39;;;;;;;1.37;1.00;;;17.00;50.30;;;;;;6322377;28;21276;-81
2023/03/28 13:54:41;;;;;;;2.45;1.42;;;17.10;50.40;;;;;;6321075;28;20305;-81
2023/03/28 13:57:43;;;;;;;2.22;1.20;;;17.30;51.10;;;;;;6317207;28;20044;-80
2023/03/28 14:04:37;;;;;;;1.35;0.90;;;18.00;49.50;;;;;;6304982;28;20183;-82
2023/03/28 14:07:46;;;;;;;1.33;1.00;;;18.20;48.90;;;;;;6313993;28;20051;-85
2023/03/28 14:11:32;;;;;;;4.57;1.15;;;18.20;48.70;;;;;;6326143;28;20040;-84
2023/03/28 14:14:37;;;;;;;1.13;0.80;;;18.40;49.10;;;;;;6324678;28;20043;-83
2023/03/28 14:18:05;;;;;;;2.17;0.82;;;18.90;49.10;;;;;;6313103;28;20182;-85
2023/03/28 14:21:22;;;;;;;0.80;0.80;;;19.10;48.50;;;;;;6322132;28;20181;-83
2023/03/28 14:24:27;;;;;;;2.60;0.98;;;19.20;48.30;;;;;;6324474;28;20040;-83
2023/03/28 14:27:35;;;;;;;1.98;1.25;;;19.20;48.60;;;;;;6322458;28;20048;-82
2023/03/28 14:30:41;;;;;;;2.40;1.10;;;19.10;48.20;;;;;;6325179;28;20051;-83
2023/03/28 14:33:46;;;;;;;3.90;1.08;;;19.00;47.90;;;;;;6324188;28;20056;-83
2023/03/28 14:37:06;;;;;;;1.95;1.63;;;19.20;47.90;;;;;;6323524;28;20055;-86
2023/03/28 14:40:19;;;;;;;2.75;1.23;;;19.40;47.40;;;;;;6324191;28;20422;-81
2023/03/28 14:43:35;;;;;;;1.10;0.80;;;19.70;47.00;;;;;;6321399;28;20498;-84
2023/03/28 14:46:37;;;;;;;1.45;0.70;;;19.60;46.90;;;;;;6321468;28;21249;-83
2023/03/28 14:54:05;;;;;;;2.63;1.02;;;19.70;46.10;;;;;;6320690;28;20139;-82
2023/03/28 14:57:08;;;;;;;2.10;1.48;;;19.60;46.40;;;;;;6322498;28;20048;-83
2023/03/28 15:00:15;;;;;;;2.47;0.88;;;19.50;47.50;;;;;;6323338;28;20052;-82
2023/03/28 15:03:27;;;;;;;1.75;1.13;;;19.50;46.90;;;;;;6324757;28;20062;-83
2023/03/28 15:06:30;;;;;;;2.35;1.58;;;19.20;45.60;;;;;;6323287;28;20047;-82
2023/03/28 15:10:01;;;;;;;1.95;0.88;;;18.40;46.40;;;;;;6323548;28;20040;-82
2023/03/28 15:13:07;;;;;;;2.80;1.33;;;18.00;47.90;;;;;;6324148;28;20490;-82
2023/03/28 15:16:09;;;;;;;1.30;0.93;;;17.60;47.80;;;;;;6323461;28;20048;-81
2023/03/28 15:19:19;;;;;;;3.03;1.45;;;17.10;48.40;;;;;;6325963;28;20134;-81
2023/03/28 15:22:24;;;;;;;1.38;1.15;;;16.60;48.30;;;;;;6323106;28;20059;-81
2023/03/28 15:25:28;;;;;;;1.08;0.98;;;16.00;48.60;;;;;;6323758;28;20190;-81
2023/03/28 15:28:31;;;;;;;1.35;1.25;;;15.50;49.50;;;;;;6322366;28;20051;-81
2023/03/28 15:31:33;;;;;;;2.72;1.58;;;15.30;50.00;;;;;;6321558;28;20490;-81
2023/03/28 15:34:43;;;;;;;1.40;1.13;;;15.00;50.30;;;;;;6326209;28;20071;-82
2023/03/28 15:37:45;;;;;;;1.52;1.00;;;14.60;51.10;;;;;;6322172;28;20048;-79
2023/03/28 15:40:50;;;;;;;2.55;1.40;;;14.60;51.20;;;;;;6324672;28;20052;-82
2023/03/28 15:44:12;;;;;;;3.28;1.52;;;14.40;51.70;;;;;;6323882;28;20367;-81
2023/03/28 15:47:18;;;;;;;1.98;1.55;;;14.20;52.60;;;;;;6322793;28;20063;-80
2023/03/28 15:50:26;;;;;;;1.35;0.77;;;14.10;52.70;;;;;;6325711;28;20063;-81
2023/03/28 15:53:28;;;;;;;1.77;1.58;;;14.00;53.20;;;;;;6323161;28;20052;-81
2023/03/28 15:56:35;;;;;;;3.58;1.45;;;13.90;53.50;;;;;;6323562;28;20053;-80
2023/03/28 15:59:41;;;;;;;4.15;1.50;;;13.80;53.70;;;;;;6322479;28;20636;-81
2023/03/28 16:02:51;;;;;;;2.13;1.45;;;13.70;54.00;;;;;;6322794;28;20052;-82
2023/03/28 16:05:55;;;;;;;1.58;1.10;;;13.60;54.50;;;;;;6319733;28;20106;-83
2023/03/28 16:09:13;;;;;;;2.80;1.70;;;13.50;54.70;;;;;;6319622;28;20050;-82
2023/03/28 16:12:17;;;;;;;1.83;1.37;;;13.40;55.10;;;;;;6322171;28;20056;-82
2023/03/28 16:15:20;;;;;;;1.23;0.98;;;13.30;55.20;;;;;;6320276;28;20298;-82
2023/03/28 16:18:22;;;;;;;1.65;0.80;;;13.30;55.50;;;;;;6319605;28;20453;-80
2023/03/28 16:21:24;;;;;;;1.88;1.20;;;13.20;55.50;;;;;;6317655;28;21158;-82
2023/03/28 16:24:26;;;;;;;2.05;0.93;;;13.10;55.40;;;;;;6322809;28;20090;-80
2023/03/28 16:27:30;;;;;;;1.08;1.05;;;13.00;55.60;;;;;;6319177;28;20135;-81